Time;durP1;ratioP1;P1;durP2;ratioP2;P2;SDS_P1;SDS_P2;PMS_P1;PMS_P2;Temp;Humidity;BMP_temperature;BMP_pressure;BME280_temperature;BME280_humidity;BME280_pressure;Samples;Min_cycle;Max_cycle;Signal;HPM_P1;HPM_P2
2022/03/09 00:02:24;;;;;;;14.35;9.90;;;4.10;93.60;;;;;;4995081;28;20085;-54
2022/03/09 00:05:09;;;;;;;15.90;9.70;;;4.10;93.70;;;;;;4989908;28;20512;-51
2022/03/09 00:07:53;;;;;;;14.10;9.25;;;4.10;93.80;;;;;;4994940;28;20528;-50
2022/03/09 00:10:37;;;;;;;13.50;9.02;;;4.10;93.90;;;;;;4994032;28;20057;-51
2022/03/09 00:13:21;;;;;;;17.08;10.48;;;4.00;94.80;;;;;;4993281;28;20033;-54
2022/03/09 00:16:05;;;;;;;16.92;10.82;;;3.90;95.90;;;;;;4993929;28;20049;-49
2022/03/09 00:18:49;;;;;;;16.58;10.65;;;4.00;95.90;;;;;;4993679;28;20042;-48
2022/03/09 00:21:34;;;;;;;17.45;10.73;;;3.90;95.80;;;;;;4993099;28;20077;-50
2022/03/09 00:24:19;;;;;;;14.55;10.10;;;3.90;96.10;;;;;;4994037;28;20489;-48
2022/03/09 00:27:03;;;;;;;15.60;10.57;;;3.90;96.10;;;;;;4975880;28;20129;-52
2022/03/09 00:29:47;;;;;;;15.27;11.20;;;3.90;96.20;;;;;;4986104;28;20121;-50
2022/03/09 00:32:32;;;;;;;18.27;10.68;;;3.80;96.80;;;;;;4993789;28;20509;-51
2022/03/09 00:35:16;;;;;;;15.07;10.23;;;3.80;96.80;;;;;;4994361;28;20081;-47
2022/03/09 00:38:00;;;;;;;18.02;10.35;;;3.70;96.90;;;;;;4994128;28;20065;-48
2022/03/09 00:40:47;;;;;;;18.38;11.43;;;3.80;96.80;;;;;;4987576;28;20485;-52
2022/03/09 00:43:31;;;;;;;19.17;11.27;;;3.70;96.90;;;;;;4991467;28;20450;-52
2022/03/09 00:46:15;;;;;;;19.45;11.05;;;3.60;97.10;;;;;;4993404;28;20471;-52
2022/03/09 00:48:59;;;;;;;20.80;13.10;;;3.40;97.50;;;;;;4991402;28;20041;-54
2022/03/09 00:51:43;;;;;;;18.70;13.23;;;3.30;97.60;;;;;;4992003;28;20057;-54
2022/03/09 00:54:27;;;;;;;15.82;12.10;;;3.20;97.20;;;;;;4984732;28;20263;-49
2022/03/09 00:57:11;;;;;;;17.63;11.55;;;3.30;97.20;;;;;;4990584;28;20046;-51
2022/03/09 00:59:56;;;;;;;16.95;12.23;;;3.30;97.20;;;;;;4990889;28;20066;-47
2022/03/09 01:02:44;;;;;;;18.27;12.25;;;3.40;97.20;;;;;;4992449;28;20092;-48
2022/03/09 01:05:29;;;;;;;20.73;12.15;;;3.40;97.20;;;;;;4991888;28;20088;-49
2022/03/09 01:08:13;;;;;;;22.63;12.73;;;3.40;97.10;;;;;;4994121;28;20041;-49
2022/03/09 01:10:57;;;;;;;16.67;12.07;;;3.40;97.00;;;;;;5004378;28;20541;-54
2022/03/09 01:13:41;;;;;;;18.77;11.80;;;3.30;97.10;;;;;;4983152;28;20071;-51
2022/03/09 01:16:25;;;;;;;18.33;11.95;;;3.40;97.20;;;;;;4992269;28;20038;-49
2022/03/09 01:19:10;;;;;;;22.73;11.55;;;3.40;97.30;;;;;;4992732;28;20138;-49
2022/03/09 01:21:54;;;;;;;20.80;11.43;;;3.20;98.20;;;;;;4992166;28;20085;-51
2022/03/09 01:24:38;;;;;;;18.08;11.00;;;3.30;98.50;;;;;;4986064;28;20053;-47
2022/03/09 01:27:22;;;;;;;25.00;12.57;;;3.20;98.60;;;;;;4993256;28;20036;-46
2022/03/09 01:30:08;;;;;;;17.60;11.60;;;3.20;98.80;;;;;;4993741;28;20065;-47
2022/03/09 01:32:52;;;;;;;17.02;10.82;;;3.20;98.80;;;;;;5005125;28;20124;-48
2022/03/09 01:35:36;;;;;;;16.58;12.48;;;3.30;98.40;;;;;;4990637;28;20034;-48
2022/03/09 01:38:21;;;;;;;16.77;11.07;;;3.20;98.60;;;;;;4992666;28;20046;-52
2022/03/09 01:41:06;;;;;;;16.95;11.93;;;3.20;99.00;;;;;;4991611;28;20033;-51
2022/03/09 01:44:11;;;;;;;15.50;10.75;;;3.10;99.30;;;;;;4991348;28;20052;-50
2022/03/09 01:46:55;;;;;;;16.10;10.82;;;3.10;99.40;;;;;;4991893;28;20088;-46
2022/03/09 01:49:40;;;;;;;15.32;11.40;;;3.00;99.40;;;;;;4992816;28;20105;-48
2022/03/09 01:52:25;;;;;;;15.77;10.82;;;3.00;99.60;;;;;;4989713;28;20042;-49
2022/03/09 01:55:10;;;;;;;17.27;11.80;;;3.00;99.00;;;;;;4987252;28;20045;-49
2022/03/09 01:57:55;;;;;;;16.58;11.73;;;2.90;99.50;;;;;;4993566;28;20041;-49
2022/03/09 02:00:38;;;;;;;17.05;11.45;;;2.80;99.50;;;;;;4992941;28;20053;-52
2022/03/09 02:03:22;;;;;;;19.05;11.23;;;2.70;99.20;;;;;;4992931;28;20080;-48
2022/03/09 02:06:07;;;;;;;19.08;11.43;;;2.70;99.60;;;;;;4982929;28;20053;-48
2022/03/09 02:11:55;;;;;;;15.88;11.13;;;2.70;99.60;;;;;;4973607;28;20053;-46
2022/03/09 02:14:40;;;;;;;16.85;11.05;;;2.80;99.40;;;;;;4978748;28;20544;-49
2022/03/09 02:17:28;;;;;;;18.90;11.75;;;2.80;99.20;;;;;;4993137;28;20107;-49
2022/03/09 02:20:12;;;;;;;18.77;11.38;;;2.80;99.30;;;;;;4992620;28;20037;-49
2022/03/09 02:22:58;;;;;;;14.93;11.02;;;2.80;99.10;;;;;;4986363;28;20044;-46
2022/03/09 02:25:42;;;;;;;17.60;10.82;;;2.70;99.20;;;;;;4994026;28;20093;-48
2022/03/09 02:28:26;;;;;;;16.65;11.18;;;2.70;99.40;;;;;;4992009;28;20122;-48
2022/03/09 02:31:10;;;;;;;15.20;11.07;;;2.70;99.80;;;;;;4992669;28;20110;-48
2022/03/09 02:33:55;;;;;;;16.63;11.57;;;2.80;99.70;;;;;;4992256;28;20041;-46
2022/03/09 02:36:39;;;;;;;23.85;11.20;;;2.80;99.60;;;;;;4993429;28;20393;-46
2022/03/09 02:39:23;;;;;;;18.35;11.00;;;2.80;99.60;;;;;;4993000;28;20164;-48
2022/03/09 02:42:08;;;;;;;18.92;11.98;;;2.70;99.90;;;;;;4993083;28;20044;-52
2022/03/09 02:44:53;;;;;;;;;;;2.70;99.90;;;;;;4993688;28;20041;-52
2022/03/09 02:47:44;;;;;;;17.02;10.50;;;2.60;99.90;;;;;;4992997;28;19920;-48
2022/03/09 02:50:28;;;;;;;15.07;10.45;;;2.50;99.90;;;;;;4992572;28;20045;-47
2022/03/09 02:53:12;;;;;;;20.77;11.27;;;2.40;99.90;;;;;;4992239;28;20101;-50
2022/03/09 02:55:56;;;;;;;16.33;11.48;;;2.40;99.90;;;;;;4991792;28;20030;-49
2022/03/09 02:58:42;;;;;;;18.58;10.93;;;2.40;99.90;;;;;;4992450;28;20060;-50
2022/03/09 03:01:26;;;;;;;17.95;11.63;;;2.40;99.90;;;;;;4992402;28;20466;-53
2022/03/09 03:04:11;;;;;;;16.25;10.98;;;2.50;99.90;;;;;;4992210;28;20073;-46
2022/03/09 03:06:55;;;;;;;16.42;11.05;;;2.40;99.90;;;;;;4992284;28;20450;-48
2022/03/09 03:09:39;;;;;;;17.63;11.90;;;2.40;99.90;;;;;;5007154;28;20458;-48
2022/03/09 03:12:23;;;;;;;17.85;11.32;;;2.30;99.90;;;;;;5000051;28;20581;-49
2022/03/09 03:15:08;;;;;;;20.92;11.52;;;2.30;99.90;;;;;;4992471;28;20085;-50
2022/03/09 03:17:52;;;;;;;18.42;11.25;;;2.30;99.90;;;;;;4992860;28;20033;-47
2022/03/09 03:20:36;;;;;;;16.60;11.43;;;2.30;99.90;;;;;;4995969;28;20057;-49
2022/03/09 03:23:25;;;;;;;18.77;11.57;;;2.30;99.90;;;;;;4994995;28;20042;-47
2022/03/09 03:26:09;;;;;;;19.42;12.45;;;2.40;99.90;;;;;;4995614;28;20077;-47
2022/03/09 03:28:53;;;;;;;17.85;11.73;;;2.20;99.90;;;;;;4995674;28;20077;-47
2022/03/09 03:31:37;;;;;;;17.55;11.02;;;2.30;99.90;;;;;;4995682;28;20089;-47
2022/03/09 03:34:21;;;;;;;14.90;10.75;;;2.30;99.90;;;;;;4996078;28;20032;-46
2022/03/09 03:37:06;;;;;;;16.90;11.52;;;2.30;99.90;;;;;;4976732;28;20045;-48
2022/03/09 03:39:50;;;;;;;17.08;11.75;;;2.30;99.90;;;;;;4977664;28;20034;-48
2022/03/09 03:42:34;;;;;;;16.10;11.50;;;2.20;99.90;;;;;;4994842;28;20092;-52
2022/03/09 03:45:18;;;;;;;17.10;11.25;;;2.20;99.90;;;;;;4996370;28;20517;-48
2022/03/09 03:48:03;;;;;;;14.82;11.00;;;2.20;99.90;;;;;;4995754;28;20057;-48
2022/03/09 03:50:47;;;;;;;15.85;10.88;;;2.10;99.90;;;;;;4995191;28;20033;-48
2022/03/09 03:53:31;;;;;;;15.35;12.32;;;2.10;99.90;;;;;;4995240;28;20122;-47
2022/03/09 03:56:15;;;;;;;20.23;11.68;;;2.00;99.90;;;;;;4995175;28;20041;-47
2022/03/09 03:58:59;;;;;;;16.25;11.57;;;2.00;99.90;;;;;;4995831;28;20057;-47
2022/03/09 04:01:43;;;;;;;16.98;11.68;;;2.00;99.90;;;;;;4995035;28;20168;-48
2022/03/09 04:04:27;;;;;;;18.35;11.65;;;2.00;99.90;;;;;;4995030;28;20038;-48
2022/03/09 04:07:11;;;;;;;17.13;11.20;;;2.00;99.90;;;;;;4994933;28;20042;-48
2022/03/09 04:09:55;;;;;;;16.70;11.32;;;2.00;99.90;;;;;;4994830;28;20568;-49
2022/03/09 04:12:39;;;;;;;13.65;11.13;;;2.00;99.90;;;;;;4994803;28;20038;-49
2022/03/09 04:15:23;;;;;;;15.77;11.52;;;2.00;99.90;;;;;;4994852;28;20449;-48
2022/03/09 04:18:08;;;;;;;15.65;10.90;;;2.00;99.90;;;;;;4994985;28;20037;-47
2022/03/09 04:20:51;;;;;;;18.98;11.23;;;2.00;99.90;;;;;;4994965;28;20038;-48
2022/03/09 04:23:35;;;;;;;18.38;11.52;;;1.90;99.90;;;;;;4994346;28;20049;-50
2022/03/09 04:26:19;;;;;;;15.60;11.23;;;1.80;99.90;;;;;;4975228;28;20042;-52
2022/03/09 04:29:03;;;;;;;17.75;11.45;;;1.70;99.90;;;;;;4977863;28;20081;-49
2022/03/09 04:31:47;;;;;;;16.67;12.10;;;1.60;99.90;;;;;;4994345;28;20045;-49
2022/03/09 04:34:31;;;;;;;19.15;12.70;;;1.50;99.90;;;;;;4974892;28;20045;-52
2022/03/09 04:37:15;;;;;;;19.98;12.07;;;1.50;99.90;;;;;;4975858;28;20100;-47
2022/03/09 04:40:02;;;;;;;20.02;12.13;;;1.50;99.90;;;;;;4994444;28;20124;-49
2022/03/09 04:42:46;;;;;;;18.48;12.82;;;1.60;99.90;;;;;;4993980;28;20045;-53
2022/03/09 04:45:30;;;;;;;19.20;11.23;;;1.70;99.90;;;;;;4994220;28;20033;-51
2022/03/09 04:48:14;;;;;;;19.77;13.52;;;1.80;99.90;;;;;;5007053;28;20041;-51
2022/03/09 04:51:00;;;;;;;19.88;12.43;;;1.80;99.90;;;;;;4993639;28;20077;-48
2022/03/09 04:53:44;;;;;;;19.17;12.48;;;1.70;99.90;;;;;;4993545;28;20072;-49
2022/03/09 04:56:28;;;;;;;16.60;12.10;;;1.70;99.90;;;;;;4993795;28;20056;-47
2022/03/09 04:59:13;;;;;;;18.27;12.85;;;1.80;99.90;;;;;;4993586;28;20623;-50
2022/03/09 05:01:57;;;;;;;23.15;12.65;;;1.80;99.90;;;;;;4993643;28;20065;-49
2022/03/09 05:04:41;;;;;;;21.45;11.88;;;1.80;99.90;;;;;;4993330;28;20077;-50
2022/03/09 05:07:25;;;;;;;16.25;11.75;;;1.80;99.90;;;;;;4994007;28;20084;-48
2022/03/09 05:10:10;;;;;;;21.50;12.02;;;1.80;99.90;;;;;;4993836;28;20117;-50
2022/03/09 05:12:54;;;;;;;23.13;12.75;;;1.70;99.90;;;;;;4993659;28;20030;-52
2022/03/09 05:15:38;;;;;;;21.73;13.25;;;1.80;99.90;;;;;;4974137;28;20046;-52
2022/03/09 05:18:22;;;;;;;23.20;12.68;;;1.80;99.90;;;;;;4976369;28;20397;-50
2022/03/09 05:21:08;;;;;;;25.40;12.75;;;1.80;99.90;;;;;;4991911;28;20045;-49
2022/03/09 05:23:52;;;;;;;23.40;13.27;;;1.80;99.90;;;;;;4993038;28;20402;-47
2022/03/09 05:26:36;;;;;;;22.23;12.32;;;1.80;99.90;;;;;;4993563;28;20034;-47
2022/03/09 05:29:20;;;;;;;35.38;13.45;;;1.80;99.90;;;;;;4993349;28;20080;-48
2022/03/09 05:32:05;;;;;;;24.35;13.57;;;1.80;99.90;;;;;;4993532;28;20284;-47
2022/03/09 05:34:50;;;;;;;22.23;12.35;;;1.70;99.90;;;;;;4993641;28;20034;-48
2022/03/09 05:37:37;;;;;;;18.83;12.10;;;1.70;99.90;;;;;;4993443;28;20069;-49
2022/03/09 05:40:21;;;;;;;28.83;12.48;;;1.70;99.90;;;;;;4993405;28;20037;-50
2022/03/09 05:43:06;;;;;;;24.80;14.18;;;1.70;99.90;;;;;;4973798;28;20042;-50
2022/03/09 05:45:50;;;;;;;29.43;13.93;;;1.70;99.90;;;;;;4980634;28;20041;-50
2022/03/09 05:48:34;;;;;;;61.17;15.35;;;1.70;99.90;;;;;;4993443;28;20073;-51
2022/03/09 05:51:18;;;;;;;29.00;12.82;;;1.60;99.90;;;;;;4993016;28;20700;-48
2022/03/09 05:54:02;;;;;;;47.53;13.85;;;1.60;99.90;;;;;;5005787;28;20069;-49
2022/03/09 05:56:46;;;;;;;43.92;18.48;;;1.60;99.90;;;;;;4992122;28;20104;-46
2022/03/09 05:59:30;;;;;;;29.67;12.30;;;1.60;99.90;;;;;;4993218;28;20033;-51
2022/03/09 06:02:15;;;;;;;25.50;12.65;;;1.50;99.90;;;;;;4993334;28;20053;-48
2022/03/09 06:04:59;;;;;;;64.57;14.93;;;1.40;99.90;;;;;;4992856;28;20449;-48
2022/03/09 06:07:43;;;;;;;21.25;12.55;;;1.30;99.90;;;;;;4993118;28;20033;-48
2022/03/09 06:10:27;;;;;;;23.52;12.13;;;1.30;99.90;;;;;;4990407;28;20032;-51
2022/03/09 06:13:11;;;;;;;17.95;12.27;;;1.30;99.90;;;;;;4992108;28;20077;-48
2022/03/09 06:15:55;;;;;;;17.80;13.05;;;1.40;99.90;;;;;;4992857;28;20040;-52
2022/03/09 06:18:39;;;;;;;14.98;10.55;;;1.40;99.90;;;;;;4992397;28;20390;-50
2022/03/09 06:21:24;;;;;;;17.80;12.55;;;1.30;99.90;;;;;;4986053;28;20042;-48
2022/03/09 06:24:09;;;;;;;21.63;12.73;;;1.30;99.90;;;;;;4992216;28;20103;-49
2022/03/09 06:26:53;;;;;;;;;;;1.20;99.90;;;;;;4993675;28;20064;-51
2022/03/09 06:29:38;;;;;;;16.17;12.00;;;1.20;99.90;;;;;;4995351;28;19920;-51
2022/03/09 06:32:22;;;;;;;26.13;12.65;;;1.10;99.90;;;;;;4989607;28;20445;-52
2022/03/09 06:35:07;;;;;;;17.83;12.30;;;1.10;99.90;;;;;;4992358;28;20069;-52
2022/03/09 06:37:51;;;;;;;18.98;13.65;;;1.30;99.90;;;;;;5003491;28;20433;-51
2022/03/09 06:40:35;;;;;;;24.35;13.55;;;1.40;99.90;;;;;;4995461;28;20124;-50
2022/03/09 06:43:19;;;;;;;28.45;13.30;;;1.50;99.90;;;;;;4992617;28;20564;-47
2022/03/09 06:46:04;;;;;;;35.53;15.18;;;1.60;99.90;;;;;;4990337;28;20553;-49
2022/03/09 06:48:48;;;;;;;32.28;14.48;;;1.70;99.90;;;;;;4991230;28;20040;-47
2022/03/09 06:51:32;;;;;;;30.97;14.90;;;1.80;99.90;;;;;;4992789;28;20525;-48
2022/03/09 06:54:16;;;;;;;29.38;13.20;;;1.80;99.90;;;;;;4995272;28;20073;-51
2022/03/09 06:57:01;;;;;;;48.15;25.40;;;1.90;99.90;;;;;;4996493;28;20032;-53
2022/03/09 06:59:46;;;;;;;35.03;17.60;;;2.00;99.90;;;;;;4996807;28;20038;-48
2022/03/09 07:02:30;;;;;;;25.00;16.13;;;2.00;99.90;;;;;;4996179;28;20045;-50
2022/03/09 07:05:15;;;;;;;27.05;16.08;;;2.10;99.90;;;;;;4996628;28;20061;-52
2022/03/09 07:08:00;;;;;;;33.05;16.13;;;2.20;99.90;;;;;;4994639;28;20073;-55
2022/03/09 07:10:44;;;;;;;28.48;15.07;;;2.20;99.90;;;;;;4996592;28;20053;-50
2022/03/09 07:13:29;;;;;;;33.92;18.30;;;2.30;99.90;;;;;;4976556;28;20451;-52
2022/03/09 07:16:13;;;;;;;32.95;18.65;;;2.40;99.90;;;;;;5009036;28;20102;-48
2022/03/09 07:18:57;;;;;;;37.40;16.33;;;2.40;99.90;;;;;;5007192;28;20041;-51
2022/03/09 07:21:41;;;;;;;23.05;13.75;;;2.50;99.70;;;;;;4995276;28;20041;-48
2022/03/09 07:24:25;;;;;;;31.65;15.30;;;2.50;99.50;;;;;;4995556;28;20054;-48
2022/03/09 07:27:09;;;;;;;29.05;13.40;;;2.60;99.40;;;;;;4995878;28;20073;-51
2022/03/09 07:29:53;;;;;;;61.60;19.80;;;2.70;99.20;;;;;;5008550;28;20513;-49
2022/03/09 07:32:38;;;;;;;33.67;14.53;;;2.80;99.10;;;;;;4994734;28;20125;-48
2022/03/09 07:35:22;;;;;;;28.92;14.43;;;2.80;98.60;;;;;;4995780;28;20041;-49
2022/03/09 07:38:07;;;;;;;21.20;13.07;;;2.80;98.40;;;;;;4992743;28;20418;-51
2022/03/09 07:40:51;;;;;;;25.00;15.20;;;2.90;98.40;;;;;;5008959;28;20728;-45
2022/03/09 07:43:35;;;;;;;29.05;13.98;;;2.90;98.50;;;;;;4994135;28;20095;-44
2022/03/09 07:46:19;;;;;;;20.35;13.27;;;2.90;98.90;;;;;;4996577;28;20060;-44
2022/03/09 07:49:04;;;;;;;45.22;18.58;;;3.00;98.70;;;;;;4996736;28;20057;-48
2022/03/09 07:51:48;;;;;;;25.42;13.10;;;3.20;98.40;;;;;;4994492;28;20033;-47
2022/03/09 07:54:32;;;;;;;19.95;12.90;;;3.20;98.50;;;;;;4990458;28;20080;-45
2022/03/09 07:57:17;;;;;;;20.00;11.82;;;3.10;98.40;;;;;;4993260;28;20037;-52
2022/03/09 08:00:01;;;;;;;17.60;12.40;;;3.20;98.10;;;;;;4995558;28;20065;-49
2022/03/09 08:02:46;;;;;;;28.20;11.82;;;3.30;98.20;;;;;;4990622;28;20053;-45
2022/03/09 08:05:30;;;;;;;15.60;11.15;;;3.40;98.00;;;;;;4994215;28;20529;-44
2022/03/09 08:08:14;;;;;;;18.52;12.15;;;3.50;97.70;;;;;;4994919;28;20034;-43
2022/03/09 08:10:58;;;;;;;22.88;12.35;;;3.50;97.50;;;;;;4994318;28;20088;-47
2022/03/09 08:13:42;;;;;;;15.98;10.38;;;3.70;97.40;;;;;;4993751;28;20038;-44
2022/03/09 08:16:26;;;;;;;23.83;12.23;;;3.80;96.90;;;;;;4993168;28;20402;-48
2022/03/09 08:19:11;;;;;;;17.02;10.65;;;3.90;96.60;;;;;;4992725;28;20076;-47
2022/03/09 08:21:55;;;;;;;16.17;11.13;;;4.00;96.40;;;;;;4994193;28;20136;-45
2022/03/09 08:24:39;;;;;;;16.55;10.05;;;4.10;95.90;;;;;;5004321;28;20033;-46
2022/03/09 08:27:23;;;;;;;23.92;11.63;;;4.10;95.80;;;;;;4994744;28;20104;-45
2022/03/09 08:30:08;;;;;;;17.00;10.57;;;4.20;95.80;;;;;;5007322;28;20117;-47
2022/03/09 08:32:52;;;;;;;17.75;10.80;;;4.30;95.60;;;;;;5004265;28;20057;-45
2022/03/09 08:35:38;;;;;;;12.35;10.23;;;4.50;95.20;;;;;;4989104;28;20109;-48
2022/03/09 08:38:22;;;;;;;;;;;4.70;94.90;;;;;;4992871;28;20042;-52
2022/03/09 08:41:06;;;;;;;15.70;10.93;;;4.80;94.80;;;;;;4990502;28;20009;-48
2022/03/09 08:43:50;;;;;;;15.65;10.50;;;4.90;94.10;;;;;;4990136;28;20101;-47
2022/03/09 08:46:34;;;;;;;17.23;11.80;;;4.90;93.90;;;;;;4988968;28;20193;-45
2022/03/09 08:49:19;;;;;;;15.20;10.43;;;4.90;94.00;;;;;;4981690;28;20046;-48
2022/03/09 08:52:03;;;;;;;16.65;11.65;;;5.10;93.80;;;;;;4993894;28;20068;-49
2022/03/09 08:54:47;;;;;;;15.63;11.32;;;5.20;93.60;;;;;;4996039;28;20093;-46
2022/03/09 08:57:32;;;;;;;14.02;10.23;;;5.20;93.40;;;;;;4983869;28;20027;-47
2022/03/09 09:00:17;;;;;;;16.70;10.95;;;5.20;93.40;;;;;;4992275;28;20366;-45
2022/03/09 09:03:01;;;;;;;19.30;11.65;;;5.30;93.40;;;;;;4994981;28;20090;-48
2022/03/09 09:05:46;;;;;;;16.73;11.43;;;5.40;93.30;;;;;;4993809;28;20049;-53
2022/03/09 09:08:30;;;;;;;19.13;11.90;;;5.50;93.10;;;;;;4988028;28;20041;-46
2022/03/09 09:11:14;;;;;;;15.05;10.93;;;5.60;92.80;;;;;;4987839;28;20049;-46
2022/03/09 09:13:58;;;;;;;18.67;11.32;;;5.70;93.00;;;;;;4991237;28;20080;-49
2022/03/09 09:16:43;;;;;;;15.20;11.13;;;5.70;92.80;;;;;;4992969;28;20105;-48
2022/03/09 09:19:28;;;;;;;16.52;10.73;;;5.80;92.50;;;;;;4991902;28;20036;-45
2022/03/09 09:22:13;;;;;;;16.23;10.57;;;5.80;92.70;;;;;;5006290;28;20118;-46
2022/03/09 09:24:57;;;;;;;14.35;10.88;;;5.90;92.50;;;;;;4993451;28;20046;-46
2022/03/09 09:27:41;;;;;;;18.45;10.90;;;5.90;92.50;;;;;;4994352;28;20041;-44
2022/03/09 09:30:30;;;;;;;20.73;10.73;;;6.00;92.40;;;;;;4993540;28;20084;-47
2022/03/09 09:33:15;;;;;;;23.67;12.23;;;6.20;92.00;;;;;;4993201;28;20253;-47
2022/03/09 09:35:59;;;;;;;15.97;11.90;;;6.20;92.10;;;;;;4993499;28;20038;-47
2022/03/09 09:38:43;;;;;;;22.80;11.90;;;6.40;92.10;;;;;;4994100;28;20041;-51
2022/03/09 09:41:28;;;;;;;19.17;12.20;;;6.50;91.90;;;;;;5006257;28;20115;-50
2022/03/09 09:44:13;;;;;;;19.42;11.52;;;6.60;92.10;;;;;;4993975;28;20061;-43
2022/03/09 09:46:57;;;;;;;20.73;12.30;;;6.60;91.80;;;;;;4993766;28;20418;-46
2022/03/09 09:49:42;;;;;;;19.42;12.18;;;6.80;91.70;;;;;;4989683;28;20099;-46
2022/03/09 09:52:33;;;;;;;18.52;11.23;;;6.90;91.30;;;;;;4990962;28;20049;-45
2022/03/09 09:55:18;;;;;;;21.15;12.15;;;6.90;91.10;;;;;;5005451;28;20041;-46
2022/03/09 09:58:03;;;;;;;18.15;12.43;;;7.00;91.40;;;;;;4992225;28;20041;-45
2022/03/09 10:00:48;;;;;;;19.00;11.50;;;7.00;91.60;;;;;;4990900;28;20037;-50
2022/03/09 10:03:32;;;;;;;19.52;11.38;;;7.20;91.40;;;;;;4990513;28;20050;-45
2022/03/09 10:06:16;;;;;;;22.27;12.18;;;7.40;91.10;;;;;;4991528;28;20041;-45
2022/03/09 10:09:09;;;;;;;16.73;12.38;;;7.60;90.60;;;;;;4990710;28;20041;-47
2022/03/09 10:11:54;;;;;;;19.27;11.55;;;7.70;90.00;;;;;;4991652;28;20098;-54
2022/03/09 10:14:53;;;;;;;12.82;10.77;;;7.90;90.60;;;;;;4989776;28;20084;-46
2022/03/09 10:17:37;;;;;;;18.15;12.07;;;8.20;90.10;;;;;;4993754;28;20073;-45
2022/03/09 10:20:23;;;;;;;25.77;13.03;;;8.50;88.50;;;;;;4999101;28;20034;-44
2022/03/09 10:23:08;;;;;;;14.00;10.75;;;8.50;87.20;;;;;;5007197;28;20397;-48
2022/03/09 10:26:01;;;;;;;15.10;10.75;;;8.60;85.70;;;;;;5009742;28;20066;-48
2022/03/09 10:29:00;;;;;;;13.73;11.07;;;8.70;84.40;;;;;;4994714;28;20045;-44
2022/03/09 10:31:47;;;;;;;18.48;11.57;;;9.00;87.00;;;;;;4997218;28;20042;-45
2022/03/09 10:34:35;;;;;;;14.75;11.40;;;9.20;82.30;;;;;;4997541;28;20054;-43
2022/03/09 10:37:19;;;;;;;17.83;11.70;;;9.50;80.90;;;;;;4991707;28;20057;-44
2022/03/09 10:40:16;;;;;;;15.80;11.10;;;9.60;79.10;;;;;;4995883;28;20568;-44
2022/03/09 10:43:16;;;;;;;14.23;11.77;;;9.60;77.20;;;;;;5008036;28;20100;-50
2022/03/09 10:46:00;;;;;;;17.70;11.52;;;9.40;76.30;;;;;;4997057;28;20087;-43
2022/03/09 10:48:50;;;;;;;15.73;12.48;;;9.20;76.20;;;;;;4995488;28;20037;-44
2022/03/09 10:51:35;;;;;;;16.27;13.65;;;9.10;75.20;;;;;;4996826;28;20564;-44
2022/03/09 10:54:19;;;;;;;;;;;9.10;75.60;;;;;;5001003;28;20053;-45
2022/03/09 10:57:11;;;;;;;22.33;14.95;;;9.10;74.70;;;;;;4995313;28;20378;-45
2022/03/09 10:59:56;;;;;;;20.23;14.77;;;9.10;74.90;;;;;;4996979;28;20034;-50
2022/03/09 11:02:51;;;;;;;19.52;13.32;;;9.30;74.40;;;;;;4995864;28;20076;-48
2022/03/09 11:05:36;;;;;;;24.85;14.00;;;9.30;74.20;;;;;;4977703;28;20122;-48
2022/03/09 11:08:28;;;;;;;23.05;14.93;;;9.40;73.40;;;;;;4996065;28;20393;-46
2022/03/09 11:11:14;;;;;;;18.80;14.27;;;9.40;73.30;;;;;;4993257;28;20532;-45
2022/03/09 11:13:58;;;;;;;17.80;12.60;;;9.30;73.20;;;;;;4993384;28;20136;-47
2022/03/09 11:16:43;;;;;;;16.08;13.60;;;9.30;73.30;;;;;;4994348;28;20038;-45
2022/03/09 11:19:27;;;;;;;20.50;13.90;;;9.30;72.20;;;;;;5000049;28;20070;-45
2022/03/09 11:22:11;;;;;;;18.75;13.50;;;9.40;72.80;;;;;;4992204;28;20088;-45
2022/03/09 11:24:56;;;;;;;43.00;23.27;;;9.40;71.90;;;;;;4995918;28;20052;-45
2022/03/09 11:27:46;;;;;;;33.40;19.05;;;9.60;70.80;;;;;;4991946;28;20044;-47
2022/03/09 11:30:33;;;;;;;21.52;14.98;;;9.70;69.60;;;;;;4983177;28;20165;-44
2022/03/09 11:33:42;;;;;;;17.42;13.30;;;9.70;68.80;;;;;;4993973;28;20081;-46
2022/03/09 11:36:29;;;;;;;22.15;13.93;;;9.80;68.20;;;;;;4992977;28;20054;-46
2022/03/09 11:39:14;;;;;;;20.90;14.88;;;10.00;68.00;;;;;;4993461;28;20033;-48
2022/03/09 11:42:20;;;;;;;20.95;14.63;;;10.00;67.60;;;;;;4993860;28;20033;-45
2022/03/09 11:45:14;;;;;;;20.25;14.50;;;10.00;67.70;;;;;;4995505;28;20076;-52
2022/03/09 11:48:10;;;;;;;19.90;14.80;;;10.20;67.70;;;;;;4995655;28;20508;-47
2022/03/09 11:51:14;;;;;;;18.98;13.90;;;10.30;67.40;;;;;;4995624;28;20069;-44
2022/03/09 11:54:00;;;;;;;35.53;15.32;;;10.40;67.40;;;;;;4992347;28;20068;-44
2022/03/09 11:56:53;;;;;;;20.00;13.48;;;10.40;66.40;;;;;;4996186;28;20025;-44
2022/03/09 11:59:38;;;;;;;17.05;12.57;;;10.20;66.50;;;;;;5008174;28;20453;-50
2022/03/09 12:02:22;;;;;;;16.05;12.20;;;10.10;65.30;;;;;;4994516;28;20457;-48
2022/03/09 12:05:27;;;;;;;16.58;11.75;;;10.30;64.50;;;;;;4975475;28;20050;-44
2022/03/09 12:08:14;;;;;;;16.42;11.35;;;10.30;62.40;;;;;;4987680;28;20122;-52
2022/03/09 12:10:58;;;;;;;13.30;9.85;;;10.40;61.70;;;;;;4995141;28;20058;-48
2022/03/09 12:13:46;;;;;;;18.23;10.73;;;10.40;60.40;;;;;;4994422;28;20044;-48
2022/03/09 12:16:31;;;;;;;13.35;9.70;;;10.30;60.50;;;;;;4994338;28;20513;-49
2022/03/09 12:19:15;;;;;;;16.95;10.23;;;10.20;59.80;;;;;;4990844;28;20526;-46
2022/03/09 12:22:04;;;;;;;16.50;10.68;;;10.30;60.60;;;;;;4988675;28;20077;-47
2022/03/09 12:24:48;;;;;;;12.80;10.05;;;10.40;60.80;;;;;;4984742;28;20042;-53
2022/03/09 12:27:33;;;;;;;16.85;11.52;;;10.70;59.80;;;;;;4992398;28;20395;-54
2022/03/09 12:30:36;;;;;;;14.23;10.75;;;10.80;60.00;;;;;;4994544;28;20112;-48
2022/03/09 12:33:32;;;;;;;15.48;10.82;;;10.80;60.00;;;;;;4990189;28;20054;-49
2022/03/09 12:36:21;;;;;;;16.40;10.07;;;10.80;59.60;;;;;;4994533;28;20045;-48
2022/03/09 12:39:07;;;;;;;14.70;10.25;;;10.90;59.50;;;;;;4994043;28;20112;-50
2022/03/09 12:41:53;;;;;;;11.13;9.93;;;11.10;59.00;;;;;;4994397;28;20409;-49
2022/03/09 12:44:38;;;;;;;11.93;9.60;;;11.30;58.10;;;;;;4994074;28;20080;-52
2022/03/09 12:47:22;;;;;;;15.10;9.60;;;11.20;58.00;;;;;;4993966;28;20041;-48
2022/03/09 12:50:07;;;;;;;12.98;10.10;;;11.30;58.20;;;;;;5006671;28;20065;-48
2022/03/09 12:52:55;;;;;;;12.50;10.13;;;11.50;57.40;;;;;;5013420;28;20068;-50
2022/03/09 12:55:39;;;;;;;13.40;10.52;;;11.60;57.40;;;;;;4992085;28;20042;-50
2022/03/09 12:58:24;;;;;;;17.52;10.23;;;11.70;56.80;;;;;;4993813;28;20045;-49
2022/03/09 13:01:09;;;;;;;18.83;11.57;;;11.80;56.70;;;;;;4992877;28;20393;-49
2022/03/09 13:04:00;;;;;;;14.15;10.50;;;11.90;56.70;;;;;;4989997;28;20077;-47
2022/03/09 13:06:44;;;;;;;14.25;9.73;;;12.10;56.50;;;;;;4989568;28;20060;-52
2022/03/09 13:09:30;;;;;;;12.70;10.32;;;12.10;55.40;;;;;;4992891;28;20034;-50
2022/03/09 13:12:14;;;;;;;14.88;9.90;;;12.20;55.20;;;;;;4992341;28;20406;-53
2022/03/09 13:15:01;;;;;;;11.13;9.10;;;12.30;55.10;;;;;;4993481;28;20041;-47
2022/03/09 13:17:47;;;;;;;15.65;9.60;;;12.40;55.90;;;;;;4984937;28;20053;-48
2022/03/09 13:20:32;;;;;;;14.65;10.13;;;12.60;54.70;;;;;;4992395;28;20053;-49
2022/03/09 13:23:36;;;;;;;40.95;14.25;;;12.60;54.40;;;;;;5005649;28;20053;-48
2022/03/09 13:26:21;;;;;;;19.13;10.10;;;12.80;54.70;;;;;;4988185;28;20038;-50
2022/03/09 13:29:14;;;;;;;13.32;9.35;;;12.90;53.40;;;;;;4992386;28;20110;-49
2022/03/09 13:32:00;;;;;;;19.98;10.65;;;12.90;53.40;;;;;;4992787;28;20037;-48
2022/03/09 13:34:44;;;;;;;22.60;10.40;;;13.00;53.10;;;;;;4993543;28;20045;-49
2022/03/09 13:37:39;;;;;;;16.40;9.57;;;13.10;53.50;;;;;;4994262;28;20030;-50
2022/03/09 13:40:27;;;;;;;12.57;8.93;;;13.20;52.80;;;;;;4992860;28;20050;-49
2022/03/09 13:43:11;;;;;;;13.90;9.20;;;13.30;52.60;;;;;;4987791;28;20045;-51
2022/03/09 13:45:56;;;;;;;17.10;9.32;;;13.50;52.10;;;;;;4984288;28;20304;-48
2022/03/09 13:48:40;;;;;;;14.52;11.10;;;13.30;52.00;;;;;;4993480;28;20045;-49
2022/03/09 13:51:32;;;;;;;20.30;14.33;;;13.50;52.70;;;;;;5005357;28;20132;-48
2022/03/09 13:54:20;;;;;;;16.27;10.18;;;13.80;51.90;;;;;;4992713;28;20760;-49
2022/03/09 13:57:04;;;;;;;12.57;10.20;;;14.00;51.40;;;;;;4993013;28;20037;-50
2022/03/09 13:59:49;;;;;;;21.08;9.85;;;14.20;50.70;;;;;;4990220;28;20088;-51
2022/03/09 14:02:33;;;;;;;14.20;9.40;;;14.30;50.50;;;;;;4989469;28;20092;-50
2022/03/09 14:05:31;;;;;;;11.55;8.73;;;14.50;50.60;;;;;;4990670;28;20280;-53
2022/03/09 14:08:30;;;;;;;20.60;9.18;;;14.50;48.70;;;;;;4988774;28;21042;-48
2022/03/09 14:11:16;;;;;;;10.90;8.95;;;14.40;48.70;;;;;;4991317;28;20049;-52
2022/03/09 14:14:10;;;;;;;14.60;8.75;;;14.50;48.40;;;;;;4991539;28;20091;-49
2022/03/09 14:16:57;;;;;;;17.77;10.15;;;14.70;48.70;;;;;;4992015;28;20113;-48